Time;durP1;ratioP1;P1;durP2;ratioP2;P2;SDS_P1;SDS_P2;PMS_P1;PMS_P2;Temp;Humidity;BMP_temperature;BMP_pressure;BME280_temperature;BME280_humidity;BME280_pressure;Samples;Min_cycle;Max_cycle;Signal;HPM_P1;HPM_P2
2022/09/27 00:01:08;;;;;;;11.98;6.90;;;;;;;18.48;50.82;92008.00;5070086;28;20079;-89
2022/09/27 00:03:34;;;;;;;12.50;7.60;;;;;;;18.47;51.11;92000.31;5053471;28;20045;-89
2022/09/27 00:06:05;;;;;;;12.18;7.63;;;;;;;18.47;51.23;91992.13;5056638;28;20469;-93
2022/09/27 00:08:31;;;;;;;10.20;6.57;;;;;;;18.49;51.12;91997.78;5073628;28;20495;-90
2022/09/27 00:10:58;;;;;;;10.43;7.13;;;;;;;18.46;51.25;91994.13;5090020;28;20039;-89
2022/09/27 00:13:24;;;;;;;14.07;8.10;;;;;;;18.47;51.20;91992.84;5073094;28;20840;-90
2022/09/27 00:15:55;;;;;;;9.35;6.60;;;;;;;18.47;51.01;91978.44;5073046;28;20036;-89
2022/09/27 00:18:20;;;;;;;12.85;7.03;;;;;;;18.47;51.24;91984.63;5086060;28;20441;-89
2022/09/27 00:20:46;;;;;;;10.10;6.95;;;;;;;18.46;51.06;91972.22;5093290;28;20036;-92
2022/09/27 00:23:11;;;;;;;9.43;6.57;;;;;;;18.46;51.22;91977.69;5072620;28;20125;-90
2022/09/27 00:25:37;;;;;;;11.55;7.05;;;;;;;18.47;51.16;91975.69;5071758;28;20515;-89
2022/09/27 00:28:02;;;;;;;9.73;6.53;;;;;;;18.47;51.13;91975.69;5073073;28;20499;-90
2022/09/27 00:30:28;;;;;;;10.77;7.25;;;;;;;18.46;51.02;91963.28;5073617;28;20535;-91
2022/09/27 00:32:53;;;;;;;11.73;7.07;;;;;;;18.47;51.08;91954.53;5056579;28;20514;-89
2022/09/27 00:35:19;;;;;;;10.25;6.53;;;;;;;18.46;51.21;91960.56;5072567;28;20483;-89
2022/09/27 00:37:47;;;;;;;9.82;6.57;;;;;;;18.45;51.48;91940.66;5072849;28;20028;-93
2022/09/27 00:40:13;;;;;;;11.45;7.20;;;;;;;18.48;51.07;91947.78;5054469;28;20046;-89
2022/09/27 00:42:38;;;;;;;9.50;6.32;;;;;;;18.46;51.11;91942.13;5062665;28;20045;-89
2022/09/27 00:45:07;;;;;;;11.38;7.10;;;;;;;18.47;51.06;91938.13;5052358;28;20044;-91
2022/09/27 00:47:35;;;;;;;8.77;6.07;;;;;;;18.46;51.19;91933.19;5035565;28;20055;-90
2022/09/27 00:50:21;;;;;;;10.30;6.43;;;;;;;18.46;51.15;91931.19;5052149;28;20044;-90
2022/09/27 00:52:55;;;;;;;9.68;6.50;;;;;;;18.46;51.19;91936.66;5089173;28;20172;-89
2022/09/27 00:55:24;;;;;;;9.95;6.43;;;;;;;18.47;50.97;91935.38;5072254;28;20042;-89
2022/09/27 00:57:50;;;;;;;9.23;6.38;;;;;;;18.46;51.07;91933.91;5047971;28;20124;-89
2022/09/27 01:00:16;;;;;;;8.68;6.18;;;;;;;18.45;51.25;91935.19;5046355;28;20040;-90
2022/09/27 01:02:48;;;;;;;8.35;6.43;;;;;;;18.45;50.76;91927.00;5057514;28;20056;-90
2022/09/27 01:05:14;;;;;;;9.43;5.88;;;;;;;18.44;51.00;91924.78;5070134;28;20056;-89
2022/09/27 01:07:39;;;;;;;11.00;6.25;;;;;;;18.43;51.02;91924.06;5068692;28;20055;-89
2022/09/27 01:10:05;;;;;;;8.05;6.03;;;;;;;18.45;51.02;91929.00;5051718;28;20037;-89
2022/09/27 01:12:36;;;;;;;10.60;6.05;;;;;;;18.44;51.07;91917.31;5084402;28;20037;-90
2022/09/27 01:15:42;;;;;;;8.20;5.60;;;;;;;18.43;51.23;91907.66;5053157;28;20037;-90
2022/09/27 01:18:07;;;;;;;10.27;6.82;;;;;;;18.43;50.97;91907.66;5094254;28;20040;-89
2022/09/27 01:20:35;;;;;;;8.77;6.38;;;;;;;18.43;51.42;91904.19;5069848;28;20106;-90
2022/09/27 01:23:26;;;;;;;10.30;6.20;;;;;;;18.43;51.14;91899.44;5068158;28;20041;-89
2022/09/27 01:26:10;;;;;;;7.05;5.88;;;;;;;18.45;50.97;91899.63;5084022;28;20056;-89
2022/09/27 01:29:13;;;;;;;10.38;5.95;;;;;;;18.42;51.35;91895.25;5068523;28;20163;-89
2022/09/27 01:31:45;;;;;;;9.55;5.88;;;;;;;18.42;50.99;91892.50;5102455;28;20055;-89
2022/09/27 01:34:27;;;;;;;9.95;6.20;;;;;;;18.42;51.27;91889.03;5068375;28;20438;-89
2022/09/27 01:37:09;;;;;;;10.75;5.95;;;;;;;18.42;51.37;91895.25;5052188;28;20063;-93
2022/09/27 01:39:53;;;;;;;9.57;5.82;;;;;;;18.43;51.43;91893.25;5074801;28;20031;-90
2022/09/27 01:42:22;;;;;;;7.93;5.30;;;;;;;18.43;51.27;91887.78;5066096;28;20036;-89
2022/09/27 01:45:03;;;;;;;9.30;6.05;;;;;;;18.42;51.08;91891.78;5051637;28;20068;-89
2022/09/27 01:47:38;;;;;;;8.82;5.28;;;;;;;18.42;51.03;91880.84;5042659;28;20041;-89
2022/09/27 01:50:05;;;;;;;9.20;5.65;;;;;;;18.42;51.21;91873.34;5051840;28;20052;-90
2022/09/27 01:52:34;;;;;;;6.65;5.05;;;;;;;18.41;51.31;91862.97;5042376;28;20040;-89
2022/09/27 01:55:00;;;;;;;7.80;5.60;;;;;;;18.42;51.01;91867.88;5035101;28;20032;-90
2022/09/27 01:57:27;;;;;;;9.23;5.38;;;;;;;18.42;51.40;91876.09;5051029;28;20029;-89
2022/09/27 01:59:58;;;;;;;6.82;4.85;;;;;;;18.42;51.05;91869.91;5046666;28;20037;-90
2022/09/27 02:02:24;;;;;;;8.73;6.20;;;;;;;18.42;51.16;91869.91;5067093;28;20032;-89
2022/09/27 02:04:52;;;;;;;9.27;5.72;;;;;;;18.41;51.04;91874.63;5076731;28;20043;-90
2022/09/27 02:07:28;;;;;;;7.75;5.05;;;;;;;18.43;51.13;91863.16;5017695;28;20045;-89
2022/09/27 02:10:01;;;;;;;8.05;5.05;;;;;;;18.42;51.28;91858.94;5069255;28;20561;-89
2022/09/27 02:12:30;;;;;;;7.72;5.40;;;;;;;18.42;51.23;91854.22;5034032;28;20033;-89
2022/09/27 02:14:59;;;;;;;6.80;5.38;;;;;;;18.41;51.31;91847.28;5034454;28;20029;-89
2022/09/27 02:17:41;;;;;;;9.52;5.63;;;;;;;18.42;51.35;91848.00;5038988;28;20097;-89
2022/09/27 02:20:21;;;;;;;7.32;4.93;;;;;;;18.41;51.11;91846.53;5070956;28;20036;-89
2022/09/27 02:22:50;;;;;;;7.35;4.93;;;;;;;18.42;51.14;91843.25;5083234;28;20043;-89
2022/09/27 02:25:37;;;;;;;10.43;6.10;;;;;;;18.41;51.12;91843.81;5049403;28;20067;-89
2022/09/27 02:28:27;;;;;;;6.65;4.95;;;;;;;18.41;51.22;91824.66;5059686;28;20068;-89
2022/09/27 02:30:53;;;;;;;7.85;5.20;;;;;;;18.40;51.42;91829.41;5067614;28;20068;-90
2022/09/27 02:33:19;;;;;;;6.97;5.03;;;;;;;18.40;50.98;91825.97;5066870;28;20537;-89
2022/09/27 02:35:46;;;;;;;7.65;4.80;;;;;;;18.40;50.93;91817.75;5067190;28;20074;-89
2022/09/27 02:38:11;;;;;;;7.22;5.07;;;;;;;18.41;51.21;91817.19;5050276;28;20048;-89
2022/09/27 02:40:42;;;;;;;6.53;5.13;;;;;;;18.39;51.18;91811.56;5076268;28;20052;-90
2022/09/27 02:43:08;;;;;;;5.97;4.40;;;;;;;18.40;51.22;91807.50;5049786;28;20547;-89
2022/09/27 02:45:48;;;;;;;7.30;5.07;;;;;;;18.39;51.30;91806.09;5036007;28;20036;-89
2022/09/27 02:48:19;;;;;;;6.78;4.55;;;;;;;18.42;51.22;91804.22;5051530;28;20071;-89
2022/09/27 02:51:06;;;;;;;7.50;4.72;;;;;;;18.41;51.40;91794.56;5067744;28;20040;-89
2022/09/27 02:53:40;;;;;;;7.90;4.50;;;;;;;18.40;51.12;91788.38;5067438;28;20040;-90
2022/09/27 02:56:24;;;;;;;6.85;4.80;;;;;;;18.41;51.31;91791.81;5039399;28;20458;-90
2022/09/27 02:59:11;;;;;;;6.38;4.80;;;;;;;18.39;51.08;91778.72;5039777;28;20040;-89
2022/09/27 03:01:40;;;;;;;6.35;4.68;;;;;;;18.40;51.23;91776.72;5052436;28;20050;-89
2022/09/27 03:04:13;;;;;;;6.47;5.05;;;;;;;18.39;51.02;91767.78;5055455;28;20049;-90
2022/09/27 03:06:40;;;;;;;4.40;3.85;;;;;;;18.41;50.98;91775.41;5076380;28;20052;-90
2022/09/27 03:09:17;;;;;;;6.40;4.43;;;;;;;18.41;51.17;91775.41;5052366;28;20100;-91
2022/09/27 03:11:43;;;;;;;8.30;5.07;;;;;;;18.38;51.09;91782.75;5054469;28;20044;-90
2022/09/27 03:14:08;;;;;;;6.00;4.70;;;;;;;18.39;51.31;91770.50;5086272;28;20040;-91
2022/09/27 03:16:34;;;;;;;6.72;5.25;;;;;;;18.38;51.23;91771.06;5069461;28;20399;-89
2022/09/27 03:18:59;;;;;;;6.35;4.53;;;;;;;18.38;51.17;91763.59;5049463;28;20411;-89
2022/09/27 03:21:25;;;;;;;6.68;4.40;;;;;;;18.38;51.27;91768.31;5047513;28;20052;-93
2022/09/27 03:23:50;;;;;;;6.20;4.15;;;;;;;18.38;51.11;91769.06;5041050;28;20041;-89
2022/09/27 03:26:16;;;;;;;5.55;4.20;;;;;;;18.40;51.05;91773.97;5065890;28;20435;-89
2022/09/27 03:28:41;;;;;;;7.38;4.68;;;;;;;18.36;51.19;91760.66;5049444;28;20044;-89
2022/09/27 03:31:07;;;;;;;5.50;4.15;;;;;;;18.38;51.45;91762.84;5054237;28;20100;-89
2022/09/27 03:33:32;;;;;;;7.45;4.50;;;;;;;18.38;51.27;91760.13;5049760;28;20055;-89
2022/09/27 03:35:57;;;;;;;6.13;4.43;;;;;;;18.37;51.13;91759.38;5066137;28;20032;-90
2022/09/27 03:38:23;;;;;;;5.72;4.00;;;;;;;18.38;51.06;91744.44;5068850;28;20032;-90
2022/09/27 03:40:48;;;;;;;7.55;4.15;;;;;;;18.38;51.34;91743.72;5045887;28;20441;-90
2022/09/27 03:43:14;;;;;;;6.93;4.22;;;;;;;18.43;51.63;91737.28;5068694;28;20047;-89
2022/09/27 03:45:39;;;;;;;5.22;3.90;;;;;;;18.42;51.47;91733.09;5052639;28;20032;-88
2022/09/27 03:48:05;;;;;;;6.50;4.25;;;;;;;18.40;51.45;91741.16;5069690;28;20040;-89
2022/09/27 03:50:30;;;;;;;6.32;4.03;;;;;;;18.40;51.10;91728.16;5065663;28;20248;-88
2022/09/27 03:52:56;;;;;;;5.65;3.38;;;;;;;18.42;51.03;91736.56;5086560;28;20067;-91
2022/09/27 03:55:21;;;;;;;5.18;4.20;;;;;;;18.43;51.07;91729.81;5066228;28;20029;-91
2022/09/27 03:57:47;;;;;;;5.30;3.75;;;;;;;18.43;51.08;91727.06;5068861;28;20052;-92
2022/09/27 04:00:12;;;;;;;4.80;3.33;;;;;;;18.42;51.28;91717.41;5051442;28;20631;-92
2022/09/27 04:02:38;;;;;;;5.55;3.95;;;;;;;18.46;50.88;91717.03;5071270;28;20045;-88
2022/09/27 04:05:04;;;;;;;5.20;3.85;;;;;;;18.44;50.93;91714.13;5090883;28;20036;-89
2022/09/27 04:07:29;;;;;;;5.75;3.92;;;;;;;18.44;51.46;91720.31;5026509;28;20056;-86
2022/09/27 04:09:55;;;;;;;6.53;3.75;;;;;;;18.41;50.92;91712.50;5079934;28;20044;-91
2022/09/27 04:12:20;;;;;;;5.55;3.70;;;;;;;18.39;51.18;91707.59;5062011;28;20055;-89
2022/09/27 04:14:46;;;;;;;4.53;3.55;;;;;;;18.42;51.03;91706.47;5050279;28;20041;-88
2022/09/27 04:17:11;;;;;;;3.50;2.90;;;;;;;18.41;50.88;91707.00;5084329;28;20033;-88
2022/09/27 04:19:38;;;;;;;4.50;2.95;;;;;;;18.41;50.98;91696.81;5066301;28;20392;-89
2022/09/27 04:22:04;;;;;;;3.92;3.15;;;;;;;18.41;50.76;91705.00;5062887;28;20127;-89
2022/09/27 04:24:30;;;;;;;7.80;3.92;;;;;;;18.41;50.71;91707.75;5052239;28;20101;-89
2022/09/27 04:27:03;;;;;;;7.72;4.35;;;;;;;18.38;49.94;91710.88;5044999;28;20029;-89
2022/09/27 04:29:29;;;;;;;11.50;4.50;;;;;;;18.39;50.31;91701.38;5023814;28;20040;-90
2022/09/27 04:31:54;;;;;;;9.93;4.55;;;;;;;18.40;50.53;91705.59;5032252;28;20094;-90
2022/09/27 04:36:25;;;;;;;10.82;3.97;;;;;;;18.39;50.98;91715.06;5062278;28;20071;-89
2022/09/27 04:37:05;;;;;;;48.33;28.33;;;;;;;18.45;50.47;91707.38;5087210;28;20107;-87
2022/09/27 04:39:31;;;;;;;27.92;13.07;;;;;;;18.46;51.37;91704.09;5067163;28;20101;-87
2022/09/27 04:41:56;;;;;;;20.55;9.50;;;;;;;18.48;50.98;91703.53;5056211;28;20124;-88
2022/09/27 04:44:22;;;;;;;18.63;9.82;;;;;;;18.50;51.45;91717.41;5050607;28;20044;-87
2022/09/27 04:46:47;;;;;;;20.60;9.88;;;;;;;18.49;51.02;91713.94;5067539;28;20114;-88
2022/09/27 04:49:13;;;;;;;12.98;6.60;;;;;;;18.50;50.75;91718.13;5045213;28;20043;-89
2022/09/27 04:51:38;;;;;;;16.60;9.63;;;;;;;18.52;50.70;91717.56;5060184;28;20047;-89
2022/09/27 04:54:04;;;;;;;30.98;10.52;;;;;;;18.50;50.78;91720.13;5078042;28;20048;-86
2022/09/27 04:56:29;;;;;;;33.22;18.92;;;;;;;18.51;51.11;91727.06;5059204;28;20048;-84
2022/09/27 04:58:57;;;;;;;39.47;12.25;;;;;;;18.46;50.79;91731.44;5083117;28;20040;-89
2022/09/27 05:01:23;;;;;;;22.20;6.38;;;;;;;18.39;48.93;91734.22;5081298;28;20051;-86
2022/09/27 05:03:49;;;;;;;14.40;4.80;;;;;;;18.28;48.26;91734.59;5055786;28;20540;-84
2022/09/27 05:06:14;;;;;;;37.22;15.35;;;;;;;18.31;48.22;91744.44;5042435;28;20561;-85
2022/09/27 05:08:39;;;;;;;48.50;21.52;;;;;;;18.32;48.60;91748.63;5084411;28;20048;-85
2022/09/27 05:11:05;;;;;;;44.95;19.77;;;;;;;18.31;48.34;91745.16;5078506;28;20104;-85
2022/09/27 05:13:30;;;;;;;73.00;24.77;;;;;;;18.33;48.78;91739.88;5067899;28;20048;-87
2022/09/27 05:16:02;;;;;;;39.92;13.68;;;;;;;18.28;48.81;91748.28;5046990;28;20033;-85
2022/09/27 05:18:27;;;;;;;20.42;7.97;;;;;;;18.24;48.35;91756.13;5073101;28;20041;-85
2022/09/27 05:20:55;;;;;;;13.50;6.57;;;;;;;18.23;48.63;91755.38;5074483;28;20073;-88
2022/09/27 05:23:21;;;;;;;15.50;5.22;;;;;;;18.13;48.48;91754.50;5039813;28;20066;-87
2022/09/27 05:25:48;;;;;;;27.73;7.05;;;;;;;18.11;48.83;91760.53;5074556;28;20093;-92
2022/09/27 05:28:14;;;;;;;16.50;6.80;;;;;;;18.02;48.87;91755.59;5048229;28;20053;-89
2022/09/27 05:30:41;;;;;;;27.65;9.38;;;;;;;17.99;49.11;91753.22;5044897;28;20037;-87
2022/09/27 05:33:07;;;;;;;14.50;7.60;;;;;;;18.04;48.71;91757.78;5049044;28;20090;-89
2022/09/27 05:35:34;;;;;;;64.43;11.35;;;;;;;18.05;49.02;91770.19;5091044;28;20036;-90
2022/09/27 05:38:01;;;;;;;44.83;9.57;;;;;;;17.96;49.19;91762.53;5076971;28;20043;-90
2022/09/27 05:40:28;;;;;;;46.03;9.00;;;;;;;17.96;49.34;91778.94;5067280;28;20115;-90
2022/09/27 05:42:53;;;;;;;43.30;9.73;;;;;;;18.02;49.25;91772.00;5061649;28;20048;-89
2022/09/27 05:45:19;;;;;;;50.95;12.75;;;;;;;18.03;48.98;91768.00;5064457;28;20040;-92
2022/09/27 05:47:55;;;;;;;88.93;25.63;;;;;;;18.07;49.22;91768.34;5054262;28;20041;-88
2022/09/27 05:50:20;;;;;;;145.32;46.55;;;;;;;18.08;49.47;91774.56;5061992;28;20067;-88
2022/09/27 05:52:48;;;;;;;121.05;27.13;;;;;;;18.07;49.66;91768.34;5063982;28;20518;-86
2022/09/27 05:55:13;;;;;;;56.78;21.15;;;;;;;18.05;49.45;91767.44;5078697;28;20137;-88
2022/09/27 05:57:38;;;;;;;46.47;17.00;;;;;;;18.07;49.55;91771.09;5074723;28;20322;-89
2022/09/27 06:00:04;;;;;;;43.75;13.40;;;;;;;18.10;49.49;91774.75;5063810;28;20127;-89
2022/09/27 06:02:31;;;;;;;55.45;18.95;;;;;;;18.11;49.77;91789.88;5073005;28;20041;-88
2022/09/27 06:04:56;;;;;;;50.10;14.77;;;;;;;18.11;49.78;91787.13;5048556;28;20403;-89
2022/09/27 06:07:23;;;;;;;45.38;13.73;;;;;;;18.15;49.73;91776.56;5055481;28;20076;-85
2022/09/27 06:09:48;;;;;;;59.33;14.77;;;;;;;18.15;49.89;91776.56;5056760;28;20035;-87
2022/09/27 06:12:14;;;;;;;60.00;16.00;;;;;;;18.19;50.57;91776.19;5048321;28;20040;-87
2022/09/27 06:14:39;;;;;;;33.70;16.27;;;;;;;18.28;52.97;91768.16;5055409;28;20040;-89
2022/09/27 06:17:05;;;;;;;43.58;14.98;;;;;;;18.26;50.44;91762.50;5062781;28;20036;-90
2022/09/27 06:19:30;;;;;;;41.60;18.73;;;;;;;18.27;49.73;91744.81;5075774;28;20047;-84
2022/09/27 06:21:56;;;;;;;49.13;28.75;;;;;;;18.25;49.81;91752.84;5043372;28;20040;-83
2022/09/27 06:24:21;;;;;;;45.85;21.27;;;;;;;18.28;50.11;91759.22;5075274;28;20052;-90
2022/09/27 06:26:46;;;;;;;39.53;17.80;;;;;;;18.30;49.84;91746.44;5080049;28;20055;-86
2022/09/27 06:29:12;;;;;;;36.67;16.67;;;;;;;18.26;50.28;91748.81;5059773;28;20036;-91
2022/09/27 06:31:38;;;;;;;30.00;12.85;;;;;;;18.23;49.42;91751.91;5039258;28;20048;-85
2022/09/27 06:34:03;;;;;;;21.42;9.05;;;;;;;18.18;49.04;91747.41;5030581;28;20033;-88
2022/09/27 06:36:29;;;;;;;37.28;9.73;;;;;;;18.11;48.65;91752.31;5063880;28;20132;-85
2022/09/27 06:38:56;;;;;;;18.75;7.00;;;;;;;18.09;48.98;91751.41;5074124;28;20105;-86
2022/09/27 06:41:22;;;;;;;19.33;8.02;;;;;;;18.02;48.65;91754.88;5067144;28;20278;-86
2022/09/27 06:43:48;;;;;;;29.38;7.97;;;;;;;18.06;48.45;91761.44;5085126;28;20037;-87
2022/09/27 06:46:13;;;;;;;20.85;7.75;;;;;;;18.08;48.91;91760.88;5065707;28;20044;-86
2022/09/27 06:48:39;;;;;;;26.30;9.93;;;;;;;18.09;48.96;91752.13;5095034;28;20582;-87
2022/09/27 06:51:04;;;;;;;37.75;11.48;;;;;;;18.12;48.89;91747.56;5058570;28;20040;-85
2022/09/27 06:53:32;;;;;;;67.70;16.13;;;;;;;18.14;49.13;91745.03;5093807;28;20633;-85
2022/09/27 06:55:59;;;;;;;52.13;16.98;;;;;;;18.11;49.91;91744.13;5031567;28;20051;-84
2022/09/27 07:01:09;;;;;;;42.83;15.07;;;;;;;18.12;49.64;91740.09;5040674;28;20044;-87
2022/09/27 07:03:38;;;;;;;45.28;14.05;;;;;;;18.13;49.58;91732.63;5028505;28;20049;-87
2022/09/27 07:06:05;;;;;;;65.95;17.80;;;;;;;18.15;50.02;91741.00;5043618;28;20137;-85
2022/09/27 07:08:30;;;;;;;61.00;16.00;;;;;;;18.18;49.75;91739.19;5038433;28;20048;-82
2022/09/27 07:11:06;;;;;;;57.50;18.50;;;;;;;18.15;50.09;91738.28;5032794;28;20131;-85
2022/09/27 07:13:33;;;;;;;50.90;17.85;;;;;;;18.19;50.34;91741.34;5031778;28;20719;-82
2022/09/27 07:15:59;;;;;;;51.25;19.67;;;;;;;18.20;50.22;91751.00;5048280;28;20047;-88
2022/09/27 07:18:25;;;;;;;46.88;17.90;;;;;;;18.20;50.38;91751.00;5037370;28;20039;-88
2022/09/27 07:20:52;;;;;;;43.78;20.65;;;;;;;18.22;50.09;91764.13;5022794;28;20037;-85
2022/09/27 07:23:18;;;;;;;44.22;18.85;;;;;;;18.20;50.30;91758.47;5068074;28;20683;-90
2022/09/27 07:25:43;;;;;;;49.28;21.35;;;;;;;18.23;50.15;91760.84;5015462;28;20126;-84
2022/09/27 07:28:15;;;;;;;52.60;24.60;;;;;;;18.22;49.90;91756.66;5007884;28;20540;-85
2022/09/27 07:30:41;;;;;;;27.88;12.38;;;;;;;18.17;49.67;91756.88;5016338;28;20135;-86
2022/09/27 07:33:06;;;;;;;24.83;12.15;;;;;;;18.11;49.23;91755.06;5048609;28;20044;-87
2022/09/27 07:35:32;;;;;;;31.30;10.70;;;;;;;18.14;49.75;91764.91;5032140;28;20523;-86
2022/09/27 07:37:57;;;;;;;38.40;15.18;;;;;;;18.12;49.56;91767.44;5025832;28;20036;-87
2022/09/27 07:40:24;;;;;;;51.33;14.60;;;;;;;18.12;49.94;91761.97;5015211;28;20074;-88
2022/09/27 07:42:56;;;;;;;109.57;25.83;;;;;;;18.10;49.90;91756.31;5057640;28;20044;-88
2022/09/27 07:45:22;;;;;;;79.57;19.60;;;;;;;18.12;51.32;91761.97;5029220;28;20040;-87
2022/09/27 07:47:47;;;;;;;79.82;24.23;;;;;;;18.15;51.09;91771.09;5014500;28;20121;-85
2022/09/27 07:50:13;;;;;;;60.10;18.75;;;;;;;18.17;50.78;91762.34;5059423;28;20037;-87
2022/09/27 07:52:40;;;;;;;73.93;22.60;;;;;;;18.18;50.31;91769.28;5054101;28;20056;-87
2022/09/27 07:55:07;;;;;;;73.32;24.38;;;;;;;18.16;49.60;91767.09;5087630;28;20048;-85
2022/09/27 07:57:33;;;;;;;55.72;23.95;;;;;;;18.18;50.00;91764.53;5088847;28;20044;-86
2022/09/27 07:59:58;;;;;;;59.30;24.13;;;;;;;18.17;50.60;91765.06;5092754;28;20090;-87
2022/09/27 08:02:24;;;;;;;60.47;28.60;;;;;;;18.20;49.79;91767.41;5051283;28;20055;-88
2022/09/27 08:04:50;;;;;;;57.30;24.83;;;;;;;18.18;50.12;91766.53;5083816;28;20039;-85
2022/09/27 08:07:15;;;;;;;60.00;25.17;;;;;;;18.20;50.43;91769.44;5078767;28;20040;-89
2022/09/27 08:09:42;;;;;;;47.63;21.42;;;;;;;18.21;50.33;91777.09;5052372;28;20102;-85
2022/09/27 08:12:09;;;;;;;45.65;18.52;;;;;;;18.21;50.65;91779.09;5052733;28;20241;-86
2022/09/27 08:14:34;;;;;;;48.28;23.13;;;;;;;18.25;50.54;91779.47;5051779;28;20583;-83
2022/09/27 08:17:00;;;;;;;71.35;33.47;;;;;;;18.23;50.01;91782.75;5063602;28;20052;-89
2022/09/27 08:19:25;;;;;;;64.93;32.42;;;;;;;18.24;50.19;91778.72;5078407;28;20047;-86
2022/09/27 08:21:53;;;;;;;67.03;35.88;;;;;;;18.25;49.68;91790.41;5044221;28;20052;-84
2022/09/27 08:24:19;;;;;;;98.03;51.17;;;;;;;18.25;50.32;91782.91;5055866;28;20128;-85
2022/09/27 08:26:44;;;;;;;145.02;92.50;;;;;;;18.23;49.94;91796.41;5048816;28;20033;-86
2022/09/27 08:29:11;;;;;;;64.28;28.85;;;;;;;18.26;50.05;91794.59;5082470;28;20091;-87
2022/09/27 08:31:37;;;;;;;65.40;31.40;;;;;;;18.24;50.25;91806.06;5081081;28;20478;-86
2022/09/27 08:34:02;;;;;;;59.13;27.85;;;;;;;18.26;50.58;91794.59;5079406;28;20071;-85
2022/09/27 08:36:29;;;;;;;84.88;36.47;;;;;;;18.25;50.65;91799.34;5041069;28;20048;-86
2022/09/27 08:38:57;;;;;;;95.57;43.38;;;;;;;18.29;50.27;91799.69;5066961;28;20052;-86
2022/09/27 08:41:46;;;;;;;110.65;50.75;;;;;;;18.28;51.11;91795.50;5088483;28;20102;-86
2022/09/27 08:44:31;;;;;;;139.45;50.97;;;;;;;18.31;51.34;91810.09;5081192;28;20090;-88
2022/09/27 08:47:11;;;;;;;139.48;54.28;;;;;;;18.31;50.69;91812.81;5066689;28;20055;-87
2022/09/27 08:49:50;;;;;;;149.38;56.03;;;;;;;18.31;50.46;91819.03;5063179;28;20063;-87
2022/09/27 08:52:21;;;;;;;146.15;57.25;;;;;;;18.34;50.28;91815.19;5057578;28;20041;-82
2022/09/27 08:54:47;;;;;;;105.85;48.22;;;;;;;18.31;50.55;91812.81;5052137;28;20048;-89
2022/09/27 08:57:12;;;;;;;111.43;51.90;;;;;;;18.35;50.22;91816.66;5041311;28;20123;-86
2022/09/27 08:59:52;;;;;;;109.60;48.42;;;;;;;18.33;50.80;91816.47;5073121;28;20059;-86
2022/09/27 09:02:19;;;;;;;148.15;68.05;;;;;;;18.35;50.55;91811.19;5053693;28;20036;-89
2022/09/27 09:04:46;;;;;;;150.38;67.45;;;;;;;18.36;50.39;91804.44;5090757;28;20040;-85
2022/09/27 09:07:41;;;;;;;146.48;68.05;;;;;;;18.35;50.39;91805.72;5031324;28;20094;-89
2022/09/27 09:10:12;;;;;;;128.43;60.08;;;;;;;18.36;50.71;91798.97;5077231;28;20041;-91
2022/09/27 09:12:48;;;;;;;126.40;53.42;;;;;;;18.36;50.67;91809.19;5078240;28;20127;-87
2022/09/27 09:18:50;;;;;;;124.03;55.78;;;;;;;18.39;50.31;91803.34;5036960;28;20045;-88
2022/09/27 09:21:33;;;;;;;128.15;58.28;;;;;;;18.39;50.20;91797.16;5046300;28;20455;-89
2022/09/27 09:24:27;;;;;;;106.65;53.38;;;;;;;18.37;50.55;91796.97;5014760;28;20419;-89
2022/09/27 09:27:14;;;;;;;138.98;59.97;;;;;;;18.40;50.25;91790.41;5030653;28;20041;-89
2022/09/27 09:30:17;;;;;;;135.20;60.78;;;;;;;18.39;50.45;91800.59;5029318;28;20120;-88
2022/09/27 09:33:21;;;;;;;119.82;56.00;;;;;;;18.40;50.46;91790.41;5031448;28;20168;-90
2022/09/27 09:35:54;;;;;;;118.63;51.25;;;;;;;18.41;50.21;91797.28;5041175;28;20041;-86
2022/09/27 09:38:29;;;;;;;109.22;52.50;;;;;;;18.41;50.48;91798.03;5042626;28;20041;-85
2022/09/27 09:40:58;;;;;;;113.10;53.85;;;;;;;18.39;50.63;91799.88;5044408;28;20072;-84
2022/09/27 09:43:35;;;;;;;126.95;58.63;;;;;;;18.38;50.41;91801.88;5025453;28;20518;-84
2022/09/27 09:46:06;;;;;;;120.38;55.92;;;;;;;18.41;50.59;91805.50;5006705;28;20461;-84
2022/09/27 09:48:42;;;;;;;113.47;51.80;;;;;;;18.41;51.04;91808.25;5021738;28;20046;-84
2022/09/27 09:51:12;;;;;;;124.20;60.08;;;;;;;18.42;50.63;91815.91;5004702;28;20045;-86
2022/09/27 09:53:42;;;;;;;135.82;66.70;;;;;;;18.46;50.09;91815.53;4971294;28;20761;-88
2022/09/27 09:56:19;;;;;;;163.50;76.97;;;;;;;18.43;50.47;91806.41;5048702;28;20039;-86
2022/09/27 09:58:54;;;;;;;195.68;85.45;;;;;;;18.45;50.03;91809.34;5013293;28;20155;-87
2022/09/27 10:01:42;;;;;;;182.52;79.80;;;;;;;18.46;49.94;91805.31;5019428;28;20625;-85
2022/09/27 10:04:21;;;;;;;154.85;73.10;;;;;;;18.45;50.38;91792.91;5036883;28;20496;-84
2022/09/27 10:06:47;;;;;;;161.77;76.50;;;;;;;18.44;50.46;91802.41;5008034;28;20046;-85
2022/09/27 10:09:15;;;;;;;146.52;70.68;;;;;;;18.47;50.34;91803.31;5003522;28;20045;-87
2022/09/27 10:11:43;;;;;;;144.45;70.22;;;;;;;18.46;50.35;91799.13;5020578;28;20259;-84
2022/09/27 10:14:11;;;;;;;159.20;74.68;;;;;;;18.47;50.13;91786.91;5018312;28;20057;-91
2022/09/27 10:16:36;;;;;;;135.27;68.70;;;;;;;18.44;50.54;91805.13;5016746;28;20050;-85
2022/09/27 10:19:02;;;;;;;149.25;72.93;;;;;;;18.43;50.55;91798.22;4990072;28;20130;-86
2022/09/27 10:21:28;;;;;;;142.32;68.55;;;;;;;18.46;50.27;91788.91;5025527;28;20052;-90
2022/09/27 10:24:07;;;;;;;133.38;72.35;;;;;;;18.46;50.73;91799.13;5029125;28;20036;-86
2022/09/27 10:26:32;;;;;;;132.88;65.65;;;;;;;18.46;50.59;91786.16;5051506;28;20045;-86
2022/09/27 10:29:15;;;;;;;134.85;69.13;;;;;;;18.48;50.28;91794.56;5087271;28;20043;-86
2022/09/27 10:31:44;;;;;;;140.35;69.47;;;;;;;18.51;50.41;91790.00;5090146;28;20040;-86
2022/09/27 10:34:17;;;;;;;129.00;66.78;;;;;;;18.49;50.17;91792.56;5064532;28;20032;-87
2022/09/27 10:36:42;;;;;;;136.20;70.93;;;;;;;18.53;50.16;91794.91;5082873;28;20160;-89
2022/09/27 10:39:20;;;;;;;155.48;79.90;;;;;;;18.50;50.11;91796.75;5070687;28;20608;-87
2022/09/27 10:41:45;;;;;;;123.60;68.75;;;;;;;18.53;50.22;91800.41;5071096;28;20047;-87
2022/09/27 10:44:24;;;;;;;132.18;75.40;;;;;;;18.52;50.35;91809.88;5082436;28;20040;-86
2022/09/27 10:46:52;;;;;;;105.70;66.07;;;;;;;18.53;50.61;91803.84;5054103;28;20033;-89
2022/09/27 10:49:21;;;;;;;180.05;66.40;;;;;;;18.53;50.51;91797.66;5066135;28;20037;-86
2022/09/27 10:52:04;;;;;;;124.60;59.47;;;;;;;18.54;50.35;91799.84;5079281;28;20040;-88
2022/09/27 10:54:34;;;;;;;118.05;59.33;;;;;;;18.55;50.21;91815.00;5065564;28;20045;-85
2022/09/27 10:57:05;;;;;;;108.50;55.92;;;;;;;18.53;50.43;91795.66;5063579;28;20283;-87
2022/09/27 10:59:33;;;;;;;121.60;62.17;;;;;;;18.55;50.37;91806.06;5054536;28;20047;-89
2022/09/27 11:01:59;;;;;;;135.55;69.10;;;;;;;18.55;50.60;91811.53;5061623;28;20104;-88
2022/09/27 11:04:35;;;;;;;127.85;72.75;;;;;;;18.52;50.68;91807.16;5041608;28;20436;-85
2022/09/27 11:07:16;;;;;;;154.52;78.28;;;;;;;18.53;50.27;91817.53;5086501;28;20040;-86
2022/09/27 11:09:45;;;;;;;;;;;;;;;18.55;50.40;91800.56;5051087;28;20128;-85
2022/09/27 11:12:14;;;;;;;182.55;84.97;;;;;;;18.55;50.62;91808.78;5084897;28;19931;-85
2022/09/27 11:14:40;;;;;;;199.55;87.20;;;;;;;18.55;50.36;91803.31;5074909;28;20106;-87
2022/09/27 11:17:19;;;;;;;175.45;81.47;;;;;;;18.56;50.40;91805.50;5084411;28;20044;-85
2022/09/27 11:20:19;;;;;;;192.57;76.68;;;;;;;18.53;50.76;91803.84;5069037;28;20059;-84
2022/09/27 11:23:22;;;;;;;197.65;84.22;;;;;;;18.54;50.61;91810.78;5067882;28;20617;-87
2022/09/27 11:26:13;;;;;;;205.10;91.53;;;;;;;18.56;50.32;91816.44;5082269;28;20101;-85
2022/09/27 11:28:56;;;;;;;197.13;86.07;;;;;;;18.56;50.25;91799.28;5058939;28;20056;-86
2022/09/27 11:31:48;;;;;;;188.73;87.63;;;;;;;18.60;50.39;91802.44;5070632;28;20085;-86
2022/09/27 11:34:27;;;;;;;176.05;84.88;;;;;;;18.60;50.53;91808.63;5074016;28;20040;-87
2022/09/27 11:37:08;;;;;;;188.32;90.68;;;;;;;18.57;50.01;91795.28;5066168;28;20044;-86
2022/09/27 11:39:56;;;;;;;130.95;61.15;;;;;;;18.54;48.65;91797.09;5039108;28;20036;-86
2022/09/27 11:42:40;;;;;;;98.95;45.17;;;;;;;18.49;47.80;91803.50;5080424;28;20044;-84